Nearby METAR Reports

 

EGNT - Newcastle, United Kingdom
Distance from station: NNE 1mi, 2km
Updated: 17/10/2018 00:20
NOT Current
Partly cloudy
Partly cloudy
 Wind from SSW
Wind: SSW 8 mph , 13 km/h
Temperature: 13°C
Dew Point: 10°C
Humidity: 82%
Barometer: 1011 hPa
Clouds: Partly cloudy
Visibility: 6 miles , 10 km
Cloud details: Partly cloudy 732 m
2018/10/16 23:20 EGNT 162320Z 21007KT 170V240 9999 SCT024 13/10 Q1011
EGQM - Boulmer, United Kingdom
Distance from station: N 29mi, 47km
Updated: 17/10/2018 00:50
NOT Current
Mostly cloudy
Mostly cloudy
 Wind from S
Wind: S 7 mph , 11 km/h
Temperature: 12°C
Dew Point: 10°C
Humidity: 88%
Barometer: 1011 hPa
Clouds: Mostly cloudy
Visibility: 6 miles , 10 km
Cloud details: Mostly cloudy 549 m
Mostly cloudy 1097 m
2018/10/16 23:50 EGQM 162350Z AUTO 17006KT 9999 BKN018/// BKN036/// 12/10 Q1011
 
EGOM - Spadeadam, United Kingdom
Distance from station: W 34mi, 54km
Updated: 16/10/2018 23:50
NOT Current
Light drizzle, Overcast
Light drizzle, Overcast
 Wind from SW
Wind: SW 13 mph , 20 km/h
Temperature: 11°C
Dew Point: 11°C
Humidity: 100%
Barometer: 1011 hPa
Summary: Light Drizzle
Clouds: Overcast
Visibility: 1 mile , 1 km
Cloud details: Overcast 30 m
2018/10/16 22:50 EGOM 162250Z AUTO 23011KT 1000 -DZ OVC001/// 11/11 Q1011
EGNV - Tees-Side, United Kingdom
Distance from station: SSE 35mi, 57km
Updated: 16/10/2018 21:50
NOT Current
Partly cloudy
Partly cloudy
 Wind from S
Wind: S 10 mph , 17 km/h
Temperature: 13°C
Dew Point: 11°C
Humidity: 88%
Barometer: 1012 hPa
Clouds: Partly cloudy
Visibility: 6 miles , 10 km
Cloud details: Partly cloudy 1006 m
2018/10/16 20:50 EGNV 162050Z 19009KT 9999 SCT033 13/11 Q1012
 
EGNC - Carlisle, United Kingdom
Distance from station: W 45mi, 72km
Updated: 12/10/2018 14:50
NOT Current
Light rain, Showers, Overcast
Light rain, Showers, Overcast
 Wind from S
Wind: S 21 mph , 33 km/h, Gust: 38 mph , 61 km/h
Temperature: 16°C
Dew Point: 14°C
Humidity: 88%
Barometer: 992 hPa
Summary: Light rain, Showers
Clouds: Overcast
Visibility: 3 miles , 5 km
Cloud details: Partly cloudy 305 m
Overcast 488 m
2018/10/12 13:50 EGNC 121350Z 18018G33KT 140V220 5000 -SHRA SCT010 OVC016 16/14 Q0992
EGXE - Leeming Raf, United Kingdom
Distance from station: S 50mi, 81km
Updated: 16/10/2018 23:50
NOT Current
Mostly cloudy
Mostly cloudy
 Wind from S
Wind: S 2 mph , 4 km/h
Temperature: 13°C
Dew Point: 11°C
Humidity: 88%
Barometer: 1012 hPa
Clouds: Mostly cloudy
Visibility: 6 miles , 10 km
Cloud details: Partly cloudy 488 m
Mostly cloudy 1280 m
2018/10/16 22:50 EGXE 162250Z AUTO 19002KT 9999 SCT016/// BKN042/// 13/11 Q1012
 
EGXZ - Topcliffe Raf, United Kingdom
Distance from station: SSE 57mi, 91km
Updated: 16/10/2018 23:50
NOT Current
Mostly cloudy
Mostly cloudy
 Wind from S
Wind: S 8 mph , 13 km/h
Temperature: 13°C
Dew Point: 11°C
Humidity: 88%
Barometer: 1013 hPa
Clouds: Mostly cloudy
Visibility: 6 miles , 10 km
Cloud details: Mostly cloudy 1250 m
Mostly cloudy 1433 m
Mostly cloudy 2438 m
2018/10/16 22:50 EGXZ 162250Z AUTO 19007KT 9999 BKN041/// BKN047/// BKN080/// 13/11 Q1013 RERA
EGXU - Linton-On-Ouse R, United Kingdom
Distance from station: SSE 68mi, 110km
Updated: 16/10/2018 23:50
NOT Current
Overcast
Overcast
 Wind from SSW
Wind: SSW 9 mph , 15 km/h
Temperature: 14°C
Dew Point: 10°C
Humidity: 77%
Barometer: 1013 hPa
Clouds: Overcast
Visibility: 6 miles , 10 km
Cloud details: Overcast 1524 m
2018/10/16 22:50 EGXU 162250Z AUTO 21008KT 9999 // OVC050/// 14/10 Q1013
 
EGNM - Leeds And Bradfo, United Kingdom
Distance from station: S 78mi, 126km
Updated: 17/10/2018 00:50
NOT Current
Mostly cloudy
Mostly cloudy
 Wind from SW
Wind: SW 7 mph , 11 km/h
Temperature: 11°C
Dew Point: 10°C
Humidity: 94%
Barometer: 1013 hPa
Clouds: Mostly cloudy
Visibility: 6 miles , 10 km
Cloud details: Partly cloudy 305 m
Mostly cloudy 1067 m
2018/10/16 23:50 EGNM 162350Z 22006KT 190V270 9999 SCT010 BKN035 11/10 Q1013
EGPH - Edinburgh Airpor, United Kingdom
Distance from station: NW 92mi, 148km
Updated: 17/10/2018 00:50
NOT Current
Clear
Clear
 Wind from SW
Wind: SW 12 mph , 19 km/h
Temperature: 10°C
Wind Chill: 7°C
Dew Point: 9°C
Humidity: 94%
Barometer: 1010 hPa
Summary: Clear
Visibility: greater than 7 miles , 10 km
2018/10/16 23:50 EGPH 162350Z 22010KT CAVOK 10/09 Q1010
 
EGXV - Leconfield (aut), United Kingdom
Distance from station: SE 93mi, 150km
Updated: 16/10/2018 23:50
NOT Current
Mist, Mostly cloudy
Mist, Mostly cloudy
 Wind from S
Wind: S 6 mph , 9 km/h
Temperature: 13°C
Dew Point: 12°C
Humidity: 94%
Barometer: 1013 hPa
Summary: Mist
Clouds: Mostly cloudy
Visibility: 4 miles , 6 km
Cloud details: Mostly cloudy 1829 m
Mostly cloudy 7010 m
2018/10/16 22:50 EGXV 162250Z AUTO 19005KT 6000 BR BKN060/// BKN230/// 13/12 Q1013
EGNO - Wharton, United Kingdom
Distance from station: SSW 99mi, 159km
Updated: 16/10/2018 19:20
NOT Current
Mostly cloudy
Mostly cloudy
 Wind from WSW
Wind: WSW 7 mph , 11 km/h
Temperature: 13°C
Dew Point: 11°C
Humidity: 88%
Barometer: 1012 hPa
Clouds: Mostly cloudy
Visibility: 6 miles , 10 km
Cloud details: Mostly cloudy 914 m
2018/10/16 18:20 EGNO 161820Z 24006KT 9999 BKN030 13/11 Q1012
 
EGNH - Blackpool Airpor, United Kingdom
Distance from station: SSW 100mi, 161km
Updated: 16/10/2018 20:50
NOT Current
Light drizzle, Mostly cloudy
Light drizzle, Mostly cloudy
 Wind from S
Wind: S 10 mph , 17 km/h
Temperature: 13°C
Dew Point: 12°C
Humidity: 94%
Barometer: 1013 hPa
Summary: Light Drizzle
Clouds: Mostly cloudy
Visibility: 6 miles , 9 km
Cloud details: Mostly cloudy 213 m
2018/10/16 19:50 EGNH 161950Z 17009KT 9000 -DZ BKN007 13/12 Q1013